sensor_id;sensor_type;location;lat;lon;timestamp;P1;durP1;ratioP1;P2;durP2;ratioP2
36555;SDS011;40859;50.560;7.268;2023-04-01T00:00:56;5.30;;;1.00;;
36555;SDS011;40859;50.560;7.268;2023-04-01T00:03:23;4.28;;;1.42;;
36555;SDS011;40859;50.560;7.268;2023-04-01T00:05:51;7.37;;;1.20;;
36555;SDS011;40859;50.560;7.268;2023-04-01T00:08:17;2.95;;;1.10;;
36555;SDS011;40859;50.560;7.268;2023-04-01T00:10:43;7.10;;;1.45;;
36555;SDS011;40859;50.560;7.268;2023-04-01T00:13:10;2.50;;;1.55;;
36555;SDS011;40859;50.560;7.268;2023-04-01T00:15:36;8.35;;;1.00;;
36555;SDS011;40859;50.560;7.268;2023-04-01T00:18:02;3.45;;;1.20;;
36555;SDS011;40859;50.560;7.268;2023-04-01T00:20:28;7.70;;;1.50;;
36555;SDS011;40859;50.560;7.268;2023-04-01T00:22:54;12.93;;;1.45;;
36555;SDS011;40859;50.560;7.268;2023-04-01T00:25:23;5.55;;;1.35;;
36555;SDS011;40859;50.560;7.268;2023-04-01T00:27:49;5.85;;;0.95;;
36555;SDS011;40859;50.560;7.268;2023-04-01T00:30:15;6.62;;;1.50;;
36555;SDS011;40859;50.560;7.268;2023-04-01T00:32:42;5.55;;;1.08;;
36555;SDS011;40859;50.560;7.268;2023-04-01T00:35:09;4.47;;;0.75;;
36555;SDS011;40859;50.560;7.268;2023-04-01T00:37:35;6.30;;;0.98;;
36555;SDS011;40859;50.560;7.268;2023-04-01T00:40:03;5.40;;;1.00;;
36555;SDS011;40859;50.560;7.268;2023-04-01T00:42:30;3.78;;;1.15;;
36555;SDS011;40859;50.560;7.268;2023-04-01T00:44:56;2.35;;;0.85;;
36555;SDS011;40859;50.560;7.268;2023-04-01T00:47:23;1.95;;;0.73;;
36555;SDS011;40859;50.560;7.268;2023-04-01T00:49:53;1.50;;;0.70;;
36555;SDS011;40859;50.560;7.268;2023-04-01T00:52:22;2.20;;;1.05;;
36555;SDS011;40859;50.560;7.268;2023-04-01T00:54:53;1.55;;;0.75;;
36555;SDS011;40859;50.560;7.268;2023-04-01T00:57:28;2.65;;;0.90;;
36555;SDS011;40859;50.560;7.268;2023-04-01T00:59:58;4.30;;;0.70;;
36555;SDS011;40859;50.560;7.268;2023-04-01T01:02:24;3.83;;;0.90;;
36555;SDS011;40859;50.560;7.268;2023-04-01T01:04:50;4.18;;;1.05;;
36555;SDS011;40859;50.560;7.268;2023-04-01T01:07:28;2.58;;;0.82;;
36555;SDS011;40859;50.560;7.268;2023-04-01T01:13:22;1.35;;;0.70;;
36555;SDS011;40859;50.560;7.268;2023-04-01T01:16:04;1.75;;;0.68;;
36555;SDS011;40859;50.560;7.268;2023-04-01T01:18:38;3.42;;;0.77;;
36555;SDS011;40859;50.560;7.268;2023-04-01T01:24:42;1.58;;;0.70;;
36555;SDS011;40859;50.560;7.268;2023-04-01T01:27:37;4.03;;;0.60;;
36555;SDS011;40859;50.560;7.268;2023-04-01T01:30:13;4.10;;;0.52;;
36555;SDS011;40859;50.560;7.268;2023-04-01T01:38:18;2.28;;;0.73;;
36555;SDS011;40859;50.560;7.268;2023-04-01T01:40:50;1.33;;;0.40;;
36555;SDS011;40859;50.560;7.268;2023-04-01T01:43:21;1.30;;;0.60;;
36555;SDS011;40859;50.560;7.268;2023-04-01T01:45:57;2.78;;;0.95;;
36555;SDS011;40859;50.560;7.268;2023-04-01T01:48:24;1.42;;;0.65;;
36555;SDS011;40859;50.560;7.268;2023-04-01T01:50:57;1.85;;;0.50;;
36555;SDS011;40859;50.560;7.268;2023-04-01T01:53:24;1.02;;;0.57;;
36555;SDS011;40859;50.560;7.268;2023-04-01T01:55:51;4.95;;;1.08;;
36555;SDS011;40859;50.560;7.268;2023-04-01T01:58:30;1.42;;;0.50;;
36555;SDS011;40859;50.560;7.268;2023-04-01T02:01:07;0.80;;;0.45;;
36555;SDS011;40859;50.560;7.268;2023-04-01T02:03:37;1.40;;;0.32;;
36555;SDS011;40859;50.560;7.268;2023-04-01T02:06:10;2.30;;;1.05;;
36555;SDS011;40859;50.560;7.268;2023-04-01T02:12:07;1.75;;;0.75;;
36555;SDS011;40859;50.560;7.268;2023-04-01T02:15:40;1.58;;;0.70;;
36555;SDS011;40859;50.560;7.268;2023-04-01T02:18:10;2.67;;;0.52;;
36555;SDS011;40859;50.560;7.268;2023-04-01T02:20:38;1.17;;;0.50;;
36555;SDS011;40859;50.560;7.268;2023-04-01T02:23:06;2.30;;;0.82;;
36555;SDS011;40859;50.560;7.268;2023-04-01T02:25:35;0.60;;;0.40;;
36555;SDS011;40859;50.560;7.268;2023-04-01T02:28:04;0.73;;;0.32;;
36555;SDS011;40859;50.560;7.268;2023-04-01T02:30:33;1.15;;;0.62;;
36555;SDS011;40859;50.560;7.268;2023-04-01T02:33:01;1.12;;;0.32;;
36555;SDS011;40859;50.560;7.268;2023-04-01T02:35:29;1.33;;;0.47;;
36555;SDS011;40859;50.560;7.268;2023-04-01T02:37:55;1.90;;;0.40;;
36555;SDS011;40859;50.560;7.268;2023-04-01T02:40:22;1.95;;;0.45;;
36555;SDS011;40859;50.560;7.268;2023-04-01T02:42:48;0.57;;;0.40;;
36555;SDS011;40859;50.560;7.268;2023-04-01T02:45:14;1.60;;;0.60;;
36555;SDS011;40859;50.560;7.268;2023-04-01T02:47:40;1.10;;;0.60;;
36555;SDS011;40859;50.560;7.268;2023-04-01T02:50:07;1.73;;;0.45;;
36555;SDS011;40859;50.560;7.268;2023-04-01T02:52:33;3.05;;;0.70;;
36555;SDS011;40859;50.560;7.268;2023-04-01T02:54:59;0.70;;;0.40;;
36555;SDS011;40859;50.560;7.268;2023-04-01T02:57:25;2.40;;;0.60;;
36555;SDS011;40859;50.560;7.268;2023-04-01T02:59:51;0.80;;;0.40;;
36555;SDS011;40859;50.560;7.268;2023-04-01T03:02:17;1.65;;;0.30;;
36555;SDS011;40859;50.560;7.268;2023-04-01T03:04:43;0.55;;;0.30;;
36555;SDS011;40859;50.560;7.268;2023-04-01T03:07:11;2.97;;;0.60;;
36555;SDS011;40859;50.560;7.268;2023-04-01T03:09:38;0.55;;;0.30;;
36555;SDS011;40859;50.560;7.268;2023-04-01T03:12:04;30.15;;;2.45;;
36555;SDS011;40859;50.560;7.268;2023-04-01T03:14:30;15.13;;;1.50;;
36555;SDS011;40859;50.560;7.268;2023-04-01T03:16:56;16.87;;;0.95;;
36555;SDS011;40859;50.560;7.268;2023-04-01T03:19:22;12.68;;;0.90;;
36555;SDS011;40859;50.560;7.268;2023-04-01T03:21:48;4.80;;;1.20;;
36555;SDS011;40859;50.560;7.268;2023-04-01T03:24:16;9.45;;;0.73;;
36555;SDS011;40859;50.560;7.268;2023-04-01T03:26:43;3.00;;;0.55;;
36555;SDS011;40859;50.560;7.268;2023-04-01T03:29:08;6.62;;;2.05;;
36555;SDS011;40859;50.560;7.268;2023-04-01T03:31:34;3.60;;;0.80;;
36555;SDS011;40859;50.560;7.268;2023-04-01T03:34:00;1.75;;;0.50;;
36555;SDS011;40859;50.560;7.268;2023-04-01T03:36:26;1.23;;;0.40;;
36555;SDS011;40859;50.560;7.268;2023-04-01T03:38:52;5.82;;;0.50;;
36555;SDS011;40859;50.560;7.268;2023-04-01T03:41:18;2.45;;;0.93;;
36555;SDS011;40859;50.560;7.268;2023-04-01T03:43:44;6.97;;;1.17;;
36555;SDS011;40859;50.560;7.268;2023-04-01T03:46:10;3.60;;;0.85;;
36555;SDS011;40859;50.560;7.268;2023-04-01T03:48:36;6.53;;;0.65;;
36555;SDS011;40859;50.560;7.268;2023-04-01T03:51:06;0.50;;;0.30;;
36555;SDS011;40859;50.560;7.268;2023-04-01T03:53:33;4.65;;;0.75;;
36555;SDS011;40859;50.560;7.268;2023-04-01T03:56:03;2.20;;;0.65;;
36555;SDS011;40859;50.560;7.268;2023-04-01T03:58:32;2.15;;;0.57;;
36555;SDS011;40859;50.560;7.268;2023-04-01T04:00:58;0.47;;;0.28;;
36555;SDS011;40859;50.560;7.268;2023-04-01T04:03:25;5.32;;;0.50;;
36555;SDS011;40859;50.560;7.268;2023-04-01T04:05:51;0.88;;;0.25;;
36555;SDS011;40859;50.560;7.268;2023-04-01T04:08:17;0.62;;;0.37;;
36555;SDS011;40859;50.560;7.268;2023-04-01T04:10:44;4.93;;;0.60;;
36555;SDS011;40859;50.560;7.268;2023-04-01T04:13:11;7.30;;;0.50;;
36555;SDS011;40859;50.560;7.268;2023-04-01T04:15:38;2.75;;;0.73;;
36555;SDS011;40859;50.560;7.268;2023-04-01T04:18:03;1.73;;;0.40;;
36555;SDS011;40859;50.560;7.268;2023-04-01T04:20:29;1.92;;;0.40;;
36555;SDS011;40859;50.560;7.268;2023-04-01T04:22:55;0.50;;;0.32;;
36555;SDS011;40859;50.560;7.268;2023-04-01T04:25:21;1.05;;;0.35;;
36555;SDS011;40859;50.560;7.268;2023-04-01T04:27:47;3.10;;;0.32;;
36555;SDS011;40859;50.560;7.268;2023-04-01T04:30:14;0.40;;;0.30;;
36555;SDS011;40859;50.560;7.268;2023-04-01T04:32:40;0.57;;;0.30;;
36555;SDS011;40859;50.560;7.268;2023-04-01T04:35:07;3.40;;;0.40;;
36555;SDS011;40859;50.560;7.268;2023-04-01T04:37:33;0.20;;;0.20;;
36555;SDS011;40859;50.560;7.268;2023-04-01T04:39:59;0.88;;;0.30;;
36555;SDS011;40859;50.560;7.268;2023-04-01T04:42:25;3.53;;;0.50;;
36555;SDS011;40859;50.560;7.268;2023-04-01T04:44:51;1.35;;;0.35;;
36555;SDS011;40859;50.560;7.268;2023-04-01T04:47:17;1.10;;;0.30;;
36555;SDS011;40859;50.560;7.268;2023-04-01T04:49:43;1.40;;;0.30;;
36555;SDS011;40859;50.560;7.268;2023-04-01T04:52:08;2.85;;;0.30;;
36555;SDS011;40859;50.560;7.268;2023-04-01T04:54:34;4.12;;;0.40;;
36555;SDS011;40859;50.560;7.268;2023-04-01T04:57:00;0.60;;;0.22;;
36555;SDS011;40859;50.560;7.268;2023-04-01T04:59:26;2.30;;;0.50;;
36555;SDS011;40859;50.560;7.268;2023-04-01T05:01:52;1.30;;;0.32;;
36555;SDS011;40859;50.560;7.268;2023-04-01T05:04:18;0.20;;;0.20;;
36555;SDS011;40859;50.560;7.268;2023-04-01T05:06:44;1.15;;;0.25;;
36555;SDS011;40859;50.560;7.268;2023-04-01T05:09:10;0.60;;;0.30;;
36555;SDS011;40859;50.560;7.268;2023-04-01T05:11:36;2.12;;;0.40;;
36555;SDS011;40859;50.560;7.268;2023-04-01T05:14:02;0.20;;;0.20;;
36555;SDS011;40859;50.560;7.268;2023-04-01T05:16:28;0.52;;;0.10;;
36555;SDS011;40859;50.560;7.268;2023-04-01T05:18:55;0.30;;;0.13;;
36555;SDS011;40859;50.560;7.268;2023-04-01T05:21:23;0.75;;;0.35;;
36555;SDS011;40859;50.560;7.268;2023-04-01T05:23:49;1.00;;;0.57;;
36555;SDS011;40859;50.560;7.268;2023-04-01T05:26:15;2.85;;;0.93;;
36555;SDS011;40859;50.560;7.268;2023-04-01T05:28:41;12.98;;;1.67;;
36555;SDS011;40859;50.560;7.268;2023-04-01T05:31:07;20.35;;;0.88;;
36555;SDS011;40859;50.560;7.268;2023-04-01T05:33:33;2.28;;;0.45;;
36555;SDS011;40859;50.560;7.268;2023-04-01T05:36:10;0.52;;;0.30;;
36555;SDS011;40859;50.560;7.268;2023-04-01T05:38:40;1.25;;;0.50;;
36555;SDS011;40859;50.560;7.268;2023-04-01T05:41:07;1.60;;;0.40;;
36555;SDS011;40859;50.560;7.268;2023-04-01T05:43:35;0.47;;;0.40;;
36555;SDS011;40859;50.560;7.268;2023-04-01T05:46:02;0.28;;;0.28;;
36555;SDS011;40859;50.560;7.268;2023-04-01T05:48:28;3.25;;;0.30;;
36555;SDS011;40859;50.560;7.268;2023-04-01T05:50:54;2.15;;;0.60;;
36555;SDS011;40859;50.560;7.268;2023-04-01T05:53:22;2.47;;;0.57;;
36555;SDS011;40859;50.560;7.268;2023-04-01T05:55:48;2.70;;;0.77;;
36555;SDS011;40859;50.560;7.268;2023-04-01T05:58:14;0.35;;;0.20;;
36555;SDS011;40859;50.560;7.268;2023-04-01T06:00:40;1.35;;;0.25;;
36555;SDS011;40859;50.560;7.268;2023-04-01T06:03:06;2.15;;;0.50;;
36555;SDS011;40859;50.560;7.268;2023-04-01T06:05:37;1.85;;;0.30;;
36555;SDS011;40859;50.560;7.268;2023-04-01T06:08:17;1.80;;;0.47;;
36555;SDS011;40859;50.560;7.268;2023-04-01T06:13:53;3.05;;;0.28;;
36555;SDS011;40859;50.560;7.268;2023-04-01T06:20:32;7.22;;;0.65;;
36555;SDS011;40859;50.560;7.268;2023-04-01T06:37:48;24.05;;;1.50;;
36555;SDS011;40859;50.560;7.268;2023-04-01T06:44:16;8.80;;;0.82;;
36555;SDS011;40859;50.560;7.268;2023-04-01T06:54:59;2.53;;;0.60;;
36555;SDS011;40859;50.560;7.268;2023-04-01T07:01:06;14.40;;;0.73;;
36555;SDS011;40859;50.560;7.268;2023-04-01T07:03:41;9.65;;;1.12;;
36555;SDS011;40859;50.560;7.268;2023-04-01T07:10:44;1.00;;;0.40;;
36555;SDS011;40859;50.560;7.268;2023-04-01T07:13:24;1.33;;;0.40;;
36555;SDS011;40859;50.560;7.268;2023-04-01T07:24:32;5.50;;;1.92;;
36555;SDS011;40859;50.560;7.268;2023-04-01T07:27:01;3.53;;;0.30;;
36555;SDS011;40859;50.560;7.268;2023-04-01T07:29:27;1.35;;;0.40;;
36555;SDS011;40859;50.560;7.268;2023-04-01T07:32:05;6.47;;;0.40;;
36555;SDS011;40859;50.560;7.268;2023-04-01T07:51:38;3.65;;;0.70;;
36555;SDS011;40859;50.560;7.268;2023-04-01T07:55:30;3.87;;;0.37;;
36555;SDS011;40859;50.560;7.268;2023-04-01T08:05:23;4.93;;;0.75;;
36555;SDS011;40859;50.560;7.268;2023-04-01T08:08:19;10.60;;;0.70;;
36555;SDS011;40859;50.560;7.268;2023-04-01T08:12:31;11.85;;;1.20;;
36555;SDS011;40859;50.560;7.268;2023-04-01T08:15:24;11.90;;;1.33;;
36555;SDS011;40859;50.560;7.268;2023-04-01T08:18:04;4.85;;;0.77;;
36555;SDS011;40859;50.560;7.268;2023-04-01T08:23:48;3.47;;;0.90;;
36555;SDS011;40859;50.560;7.268;2023-04-01T08:26:32;10.23;;;1.10;;
36555;SDS011;40859;50.560;7.268;2023-04-01T08:29:07;5.07;;;0.85;;
36555;SDS011;40859;50.560;7.268;2023-04-01T08:31:46;11.65;;;0.70;;
36555;SDS011;40859;50.560;7.268;2023-04-01T08:34:25;4.70;;;0.57;;
36555;SDS011;40859;50.560;7.268;2023-04-01T08:37:14;3.30;;;1.15;;
36555;SDS011;40859;50.560;7.268;2023-04-01T08:39:46;3.10;;;0.62;;
36555;SDS011;40859;50.560;7.268;2023-04-01T08:42:36;7.78;;;1.10;;
36555;SDS011;40859;50.560;7.268;2023-04-01T08:45:34;7.95;;;0.90;;
36555;SDS011;40859;50.560;7.268;2023-04-01T08:48:45;16.30;;;2.08;;
36555;SDS011;40859;50.560;7.268;2023-04-01T08:59:17;6.85;;;1.58;;
36555;SDS011;40859;50.560;7.268;2023-04-01T09:03:34;6.07;;;0.77;;
36555;SDS011;40859;50.560;7.268;2023-04-01T09:09:15;7.60;;;1.00;;
36555;SDS011;40859;50.560;7.268;2023-04-01T09:27:45;11.02;;;1.17;;
36555;SDS011;40859;50.560;7.268;2023-04-01T09:30:41;7.43;;;0.80;;
36555;SDS011;40859;50.560;7.268;2023-04-01T09:40:58;7.18;;;1.15;;
36555;SDS011;40859;50.560;7.268;2023-04-01T09:46:19;9.45;;;0.90;;
36555;SDS011;40859;50.560;7.268;2023-04-01T09:50:27;10.23;;;0.73;;
36555;SDS011;40859;50.560;7.268;2023-04-01T09:53:48;6.75;;;1.20;;
36555;SDS011;40859;50.560;7.268;2023-04-01T10:02:22;4.70;;;0.50;;
36555;SDS011;40859;50.560;7.268;2023-04-01T10:08:12;4.40;;;0.60;;
36555;SDS011;40859;50.560;7.268;2023-04-01T10:21:47;10.57;;;1.17;;
36555;SDS011;40859;50.560;7.268;2023-04-01T10:26:10;8.40;;;0.75;;
36555;SDS011;40859;50.560;7.268;2023-04-01T10:29:02;12.00;;;0.93;;
36555;SDS011;40859;50.560;7.268;2023-04-01T10:32:01;10.65;;;0.88;;
36555;SDS011;40859;50.560;7.268;2023-04-01T10:44:37;4.93;;;0.65;;
36555;SDS011;40859;50.560;7.268;2023-04-01T10:52:15;21.58;;;1.70;;
36555;SDS011;40859;50.560;7.268;2023-04-01T11:08:08;5.62;;;0.82;;
36555;SDS011;40859;50.560;7.268;2023-04-01T11:32:57;11.57;;;1.07;;
36555;SDS011;40859;50.560;7.268;2023-04-01T11:36:00;6.25;;;0.90;;
36555;SDS011;40859;50.560;7.268;2023-04-01T11:43:25;8.02;;;1.50;;
36555;SDS011;40859;50.560;7.268;2023-04-01T11:46:12;3.08;;;0.65;;
36555;SDS011;40859;50.560;7.268;2023-04-01T11:58:23;9.02;;;1.20;;
36555;SDS011;40859;50.560;7.268;2023-04-01T12:01:11;6.07;;;0.98;;
36555;SDS011;40859;50.560;7.268;2023-04-01T12:04:00;7.35;;;0.82;;
36555;SDS011;40859;50.560;7.268;2023-04-01T12:06:55;10.48;;;1.20;;
36555;SDS011;40859;50.560;7.268;2023-04-01T12:13:02;6.15;;;1.05;;
36555;SDS011;40859;50.560;7.268;2023-04-01T12:15:49;5.85;;;0.80;;
36555;SDS011;40859;50.560;7.268;2023-04-01T12:21:32;4.40;;;0.90;;
36555;SDS011;40859;50.560;7.268;2023-04-01T12:24:45;7.03;;;1.12;;
36555;SDS011;40859;50.560;7.268;2023-04-01T12:30:32;16.73;;;1.37;;
36555;SDS011;40859;50.560;7.268;2023-04-01T12:33:32;8.18;;;1.20;;
36555;SDS011;40859;50.560;7.268;2023-04-01T12:36:43;5.43;;;0.93;;
36555;SDS011;40859;50.560;7.268;2023-04-01T12:40:20;5.55;;;0.93;;
36555;SDS011;40859;50.560;7.268;2023-04-01T12:43:22;8.18;;;1.37;;
36555;SDS011;40859;50.560;7.268;2023-04-01T12:52:53;8.65;;;0.93;;
36555;SDS011;40859;50.560;7.268;2023-04-01T12:55:52;8.00;;;1.30;;
36555;SDS011;40859;50.560;7.268;2023-04-01T13:04:29;6.30;;;0.98;;
36555;SDS011;40859;50.560;7.268;2023-04-01T13:15:54;5.12;;;0.77;;
36555;SDS011;40859;50.560;7.268;2023-04-01T13:21:58;13.55;;;1.73;;
36555;SDS011;40859;50.560;7.268;2023-04-01T13:31:10;1.85;;;0.80;;
36555;SDS011;40859;50.560;7.268;2023-04-01T13:40:25;2.72;;;0.77;;
36555;SDS011;40859;50.560;7.268;2023-04-01T13:44:37;5.00;;;0.50;;
36555;SDS011;40859;50.560;7.268;2023-04-01T13:49:06;2.03;;;0.70;;
36555;SDS011;40859;50.560;7.268;2023-04-01T13:51:52;4.03;;;0.70;;
36555;SDS011;40859;50.560;7.268;2023-04-01T13:56:15;6.03;;;0.73;;
36555;SDS011;40859;50.560;7.268;2023-04-01T13:59:47;1.73;;;0.85;;
36555;SDS011;40859;50.560;7.268;2023-04-01T14:05:39;2.05;;;0.50;;
36555;SDS011;40859;50.560;7.268;2023-04-01T14:08:47;0.52;;;0.40;;
36555;SDS011;40859;50.560;7.268;2023-04-01T14:13:02;3.95;;;1.02;;
36555;SDS011;40859;50.560;7.268;2023-04-01T14:23:42;7.93;;;0.77;;
36555;SDS011;40859;50.560;7.268;2023-04-01T14:26:27;2.83;;;0.70;;
36555;SDS011;40859;50.560;7.268;2023-04-01T14:43:28;4.07;;;0.80;;
36555;SDS011;40859;50.560;7.268;2023-04-01T14:47:48;14.27;;;1.37;;
36555;SDS011;40859;50.560;7.268;2023-04-01T14:50:28;3.40;;;0.40;;
36555;SDS011;40859;50.560;7.268;2023-04-01T14:53:13;7.97;;;0.93;;
36555;SDS011;40859;50.560;7.268;2023-04-01T14:56:00;2.47;;;0.60;;
36555;SDS011;40859;50.560;7.268;2023-04-01T15:02:07;3.83;;;0.80;;
36555;SDS011;40859;50.560;7.268;2023-04-01T15:04:57;4.40;;;0.50;;
36555;SDS011;40859;50.560;7.268;2023-04-01T15:08:03;0.88;;;0.50;;
36555;SDS011;40859;50.560;7.268;2023-04-01T15:12:23;4.18;;;0.62;;
36555;SDS011;40859;50.560;7.268;2023-04-01T15:31:14;5.35;;;0.47;;
36555;SDS011;40859;50.560;7.268;2023-04-01T15:40:02;7.40;;;0.80;;
36555;SDS011;40859;50.560;7.268;2023-04-01T15:42:53;3.97;;;0.50;;
36555;SDS011;40859;50.560;7.268;2023-04-01T15:46:47;8.52;;;0.60;;
36555;SDS011;40859;50.560;7.268;2023-04-01T15:59:41;8.25;;;0.60;;
36555;SDS011;40859;50.560;7.268;2023-04-01T16:02:48;5.07;;;1.05;;
36555;SDS011;40859;50.560;7.268;2023-04-01T16:14:54;5.30;;;0.60;;
36555;SDS011;40859;50.560;7.268;2023-04-01T16:25:17;12.82;;;2.22;;
36555;SDS011;40859;50.560;7.268;2023-04-01T16:40:02;3.37;;;0.70;;
36555;SDS011;40859;50.560;7.268;2023-04-01T16:44:19;14.32;;;1.27;;
36555;SDS011;40859;50.560;7.268;2023-04-01T16:46:51;26.75;;;1.73;;
36555;SDS011;40859;50.560;7.268;2023-04-01T16:55:11;6.95;;;0.98;;
36555;SDS011;40859;50.560;7.268;2023-04-01T16:57:51;7.72;;;0.80;;
36555;SDS011;40859;50.560;7.268;2023-04-01T17:00:26;8.55;;;0.68;;
36555;SDS011;40859;50.560;7.268;2023-04-01T17:03:02;5.85;;;1.00;;
36555;SDS011;40859;50.560;7.268;2023-04-01T17:06:12;5.80;;;0.93;;
36555;SDS011;40859;50.560;7.268;2023-04-01T17:10:33;1.15;;;0.47;;
36555;SDS011;40859;50.560;7.268;2023-04-01T17:13:39;7.15;;;0.70;;
36555;SDS011;40859;50.560;7.268;2023-04-01T17:23:34;10.38;;;1.42;;
36555;SDS011;40859;50.560;7.268;2023-04-01T17:26:06;5.22;;;0.82;;
36555;SDS011;40859;50.560;7.268;2023-04-01T17:35:37;8.70;;;1.23;;
36555;SDS011;40859;50.560;7.268;2023-04-01T17:44:33;10.43;;;0.88;;
36555;SDS011;40859;50.560;7.268;2023-04-01T17:47:41;10.73;;;0.95;;
36555;SDS011;40859;50.560;7.268;2023-04-01T17:55:38;9.68;;;1.50;;
36555;SDS011;40859;50.560;7.268;2023-04-01T17:58:21;15.20;;;1.83;;
36555;SDS011;40859;50.560;7.268;2023-04-01T18:14:50;10.00;;;1.70;;
36555;SDS011;40859;50.560;7.268;2023-04-01T18:17:43;14.95;;;1.15;;
36555;SDS011;40859;50.560;7.268;2023-04-01T18:20:31;11.48;;;2.03;;
36555;SDS011;40859;50.560;7.268;2023-04-01T18:23:51;20.92;;;1.80;;
36555;SDS011;40859;50.560;7.268;2023-04-01T18:26:41;5.70;;;0.80;;
36555;SDS011;40859;50.560;7.268;2023-04-01T18:33:24;12.00;;;1.50;;
36555;SDS011;40859;50.560;7.268;2023-04-01T18:35:58;5.25;;;1.05;;
36555;SDS011;40859;50.560;7.268;2023-04-01T18:38:39;14.43;;;1.80;;
36555;SDS011;40859;50.560;7.268;2023-04-01T18:41:31;16.02;;;1.70;;
36555;SDS011;40859;50.560;7.268;2023-04-01T18:54:41;8.10;;;1.08;;
36555;SDS011;40859;50.560;7.268;2023-04-01T19:04:26;22.50;;;1.23;;
36555;SDS011;40859;50.560;7.268;2023-04-01T19:19:02;13.38;;;2.42;;
36555;SDS011;40859;50.560;7.268;2023-04-01T19:21:48;7.93;;;1.37;;
36555;SDS011;40859;50.560;7.268;2023-04-01T19:24:49;8.20;;;1.40;;
36555;SDS011;40859;50.560;7.268;2023-04-01T19:27:42;5.45;;;1.25;;
36555;SDS011;40859;50.560;7.268;2023-04-01T19:33:18;2.95;;;0.90;;
36555;SDS011;40859;50.560;7.268;2023-04-01T19:36:01;8.73;;;1.08;;
36555;SDS011;40859;50.560;7.268;2023-04-01T19:44:22;7.55;;;1.23;;
36555;SDS011;40859;50.560;7.268;2023-04-01T19:48:16;11.27;;;1.10;;
36555;SDS011;40859;50.560;7.268;2023-04-01T20:01:22;4.68;;;1.35;;
36555;SDS011;40859;50.560;7.268;2023-04-01T20:03:58;2.17;;;0.80;;
36555;SDS011;40859;50.560;7.268;2023-04-01T20:17:20;6.60;;;1.37;;
36555;SDS011;40859;50.560;7.268;2023-04-01T20:23:07;2.80;;;1.05;;
36555;SDS011;40859;50.560;7.268;2023-04-01T20:27:17;4.15;;;1.02;;
36555;SDS011;40859;50.560;7.268;2023-04-01T20:30:55;6.12;;;1.00;;
36555;SDS011;40859;50.560;7.268;2023-04-01T20:36:30;2.05;;;0.90;;
36555;SDS011;40859;50.560;7.268;2023-04-01T20:44:41;1.70;;;0.60;;
36555;SDS011;40859;50.560;7.268;2023-04-01T20:50:11;1.55;;;0.80;;
36555;SDS011;40859;50.560;7.268;2023-04-01T20:53:15;1.48;;;0.80;;
36555;SDS011;40859;50.560;7.268;2023-04-01T21:00:52;4.00;;;0.90;;
36555;SDS011;40859;50.560;7.268;2023-04-01T21:03:45;12.63;;;1.00;;
36555;SDS011;40859;50.560;7.268;2023-04-01T21:06:44;8.13;;;0.60;;
36555;SDS011;40859;50.560;7.268;2023-04-01T21:16:01;4.87;;;0.65;;
36555;SDS011;40859;50.560;7.268;2023-04-01T21:19:03;3.37;;;0.80;;
36555;SDS011;40859;50.560;7.268;2023-04-01T21:22:01;0.95;;;0.57;;
36555;SDS011;40859;50.560;7.268;2023-04-01T21:25:01;6.93;;;1.95;;
36555;SDS011;40859;50.560;7.268;2023-04-01T21:28:09;2.12;;;1.17;;
36555;SDS011;40859;50.560;7.268;2023-04-01T21:48:52;3.50;;;0.88;;
36555;SDS011;40859;50.560;7.268;2023-04-01T22:00:32;3.85;;;0.80;;
36555;SDS011;40859;50.560;7.268;2023-04-01T22:06:28;1.83;;;0.80;;
36555;SDS011;40859;50.560;7.268;2023-04-01T22:09:29;3.10;;;1.05;;
36555;SDS011;40859;50.560;7.268;2023-04-01T22:12:17;5.68;;;0.85;;
36555;SDS011;40859;50.560;7.268;2023-04-01T22:20:58;1.60;;;0.93;;
36555;SDS011;40859;50.560;7.268;2023-04-01T22:23:42;2.97;;;0.85;;
36555;SDS011;40859;50.560;7.268;2023-04-01T22:27:24;2.87;;;0.75;;
36555;SDS011;40859;50.560;7.268;2023-04-01T22:31:25;1.10;;;0.70;;
36555;SDS011;40859;50.560;7.268;2023-04-01T22:34:10;1.87;;;0.70;;
36555;SDS011;40859;50.560;7.268;2023-04-01T22:36:54;1.48;;;0.60;;
36555;SDS011;40859;50.560;7.268;2023-04-01T22:41:26;1.08;;;0.60;;
36555;SDS011;40859;50.560;7.268;2023-04-01T22:48:30;6.78;;;1.55;;
36555;SDS011;40859;50.560;7.268;2023-04-01T22:53:56;1.02;;;0.68;;
36555;SDS011;40859;50.560;7.268;2023-04-01T22:57:17;7.20;;;1.10;;
36555;SDS011;40859;50.560;7.268;2023-04-01T23:00:38;11.40;;;1.25;;
36555;SDS011;40859;50.560;7.268;2023-04-01T23:03:27;2.85;;;0.80;;
36555;SDS011;40859;50.560;7.268;2023-04-01T23:05:57;0.70;;;0.52;;
36555;SDS011;40859;50.560;7.268;2023-04-01T23:08:38;5.20;;;1.17;;
36555;SDS011;40859;50.560;7.268;2023-04-01T23:12:04;11.23;;;1.02;;
36555;SDS011;40859;50.560;7.268;2023-04-01T23:14:39;3.97;;;0.77;;
36555;SDS011;40859;50.560;7.268;2023-04-01T23:22:44;27.52;;;4.82;;
36555;SDS011;40859;50.560;7.268;2023-04-01T23:29:28;31.55;;;8.85;;
36555;SDS011;40859;50.560;7.268;2023-04-01T23:31:58;29.60;;;9.82;;
36555;SDS011;40859;50.560;7.268;2023-04-01T23:34:27;31.23;;;11.05;;
36555;SDS011;40859;50.560;7.268;2023-04-01T23:37:10;32.55;;;9.40;;
36555;SDS011;40859;50.560;7.268;2023-04-01T23:39:39;27.80;;;10.38;;
36555;SDS011;40859;50.560;7.268;2023-04-01T23:42:13;33.70;;;10.52;;
36555;SDS011;40859;50.560;7.268;2023-04-01T23:44:49;29.33;;;10.73;;
36555;SDS011;40859;50.560;7.268;2023-04-01T23:47:24;20.98;;;9.07;;
36555;SDS011;40859;50.560;7.268;2023-04-01T23:50:14;28.55;;;10.27;;
36555;SDS011;40859;50.560;7.268;2023-04-01T23:52:45;22.13;;;9.60;;
36555;SDS011;40859;50.560;7.268;2023-04-01T23:55:16;28.38;;;9.60;;
